Time;durP1;ratioP1;P1;durP2;ratioP2;P2;SDS_P1;SDS_P2;PMS_P1;PMS_P2;Temp;Humidity;BMP_temperature;BMP_pressure;BME280_temperature;BME280_humidity;BME280_pressure;Samples;Min_cycle;Max_cycle;Signal;HPM_P1;HPM_P2
2021/03/15 00:00:46;;;;;;;20.27;5.07;;;;;;;20.47;38.11;101735.00;5051611;28;20032;-78
2021/03/15 00:03:12;;;;;;;11.98;3.95;;;;;;;20.50;37.92;101741.84;5051898;28;20033;-78
2021/03/15 00:05:37;;;;;;;9.20;3.33;;;;;;;20.37;38.09;101738.28;5052083;28;20021;-80
2021/03/15 00:08:04;;;;;;;12.77;4.72;;;;;;;20.52;37.70;101744.25;5051553;28;20025;-78
2021/03/15 00:10:31;;;;;;;12.18;3.55;;;;;;;20.42;37.64;101746.38;5051958;28;20098;-80
2021/03/15 00:12:56;;;;;;;9.35;2.92;;;;;;;20.39;37.89;101735.16;5051852;28;20471;-81
2021/03/15 00:15:23;;;;;;;10.45;3.40;;;;;;;20.32;37.89;101746.84;5051779;28;20032;-78
2021/03/15 00:17:50;;;;;;;8.77;3.22;;;;;;;20.28;37.99;101745.97;5051771;28;20585;-78
2021/03/15 00:20:17;;;;;;;8.68;2.67;;;;;;;20.29;38.11;101730.94;5050304;28;20143;-81
2021/03/15 00:22:43;;;;;;;9.30;2.80;;;;;;;20.16;38.31;101748.78;5051805;28;20044;-80
2021/03/15 00:25:10;;;;;;;9.10;2.47;;;;;;;20.12;38.40;101740.38;5051762;28;20029;-78
2021/03/15 00:27:37;;;;;;;6.57;2.53;;;;;;;20.09;38.54;101743.03;5052719;28;20438;-78
2021/03/15 00:30:06;;;;;;;9.05;2.50;;;;;;;20.10;38.53;101739.94;5054891;28;20041;-78
2021/03/15 00:32:32;;;;;;;11.45;2.75;;;;;;;20.25;38.17;101746.66;5053965;28;20033;-78
2021/03/15 00:34:57;;;;;;;7.82;2.70;;;;;;;20.08;38.64;101752.53;5055223;28;20036;-78
2021/03/15 00:37:23;;;;;;;7.85;2.35;;;;;;;20.07;38.61;101745.38;5055288;28;20028;-80
2021/03/15 00:39:49;;;;;;;5.18;2.03;;;;;;;19.82;39.17;101761.31;5055009;28;20029;-77
2021/03/15 00:42:14;;;;;;;9.32;2.88;;;;;;;19.83;39.18;101768.47;5054836;28;20072;-77
2021/03/15 00:44:40;;;;;;;11.13;3.42;;;;;;;20.11;38.33;101765.72;5055189;28;20054;-79
2021/03/15 00:47:05;;;;;;;7.20;2.97;;;;;;;20.05;38.65;101761.56;5055109;28;20061;-78
2021/03/15 00:49:31;;;;;;;8.25;2.50;;;;;;;20.08;38.73;101758.06;5055061;28;20029;-78
2021/03/15 00:51:57;;;;;;;6.43;2.08;;;;;;;20.13;38.57;101760.59;5055001;28;20063;-80
2021/03/15 00:54:23;;;;;;;6.20;2.60;;;;;;;20.05;38.58;101765.16;5053126;28;20079;-79
2021/03/15 00:56:48;;;;;;;10.23;3.28;;;;;;;20.18;38.48;101765.91;5054139;28;20487;-78
2021/03/15 00:59:14;;;;;;;12.35;3.05;;;;;;;20.04;38.76;101774.63;5054114;28;20484;-80
2021/03/15 01:01:40;;;;;;;12.13;3.70;;;;;;;20.14;38.53;101778.88;5054809;28;20029;-80
2021/03/15 01:04:07;;;;;;;12.93;3.45;;;;;;;20.35;38.10;101776.69;5054803;28;20430;-78
2021/03/15 01:06:33;;;;;;;13.07;3.15;;;;;;;20.45;37.75;101778.97;5054669;28;20078;-80
2021/03/15 01:08:59;;;;;;;8.65;3.00;;;;;;;20.26;38.21;101787.16;5054752;28;20106;-79
2021/03/15 01:11:25;;;;;;;8.80;3.03;;;;;;;20.11;38.60;101777.63;5054660;28;20033;-78
2021/03/15 01:13:52;;;;;;;11.80;4.10;;;;;;;20.31;38.30;101786.06;5054197;28;20021;-80
2021/03/15 01:16:18;;;;;;;8.93;3.15;;;;;;;20.34;37.99;101783.41;5053862;28;20398;-79
2021/03/15 01:18:44;;;;;;;11.70;3.17;;;;;;;20.30;38.24;101779.72;5053495;28;20021;-78
2021/03/15 01:21:13;;;;;;;11.23;3.00;;;;;;;20.22;38.29;101789.00;5053899;28;20025;-78
2021/03/15 01:23:38;;;;;;;10.48;3.10;;;;;;;20.35;38.01;101784.22;5052304;28;20167;-78
2021/03/15 01:26:04;;;;;;;6.75;2.70;;;;;;;20.36;38.20;101783.06;5053616;28;20116;-79
2021/03/15 01:28:30;;;;;;;11.07;3.15;;;;;;;20.47;37.84;101787.75;5052382;28;20104;-78
2021/03/15 01:30:56;;;;;;;9.02;3.10;;;;;;;20.54;37.62;101789.91;5053498;28;20545;-79
2021/03/15 01:33:22;;;;;;;7.95;3.17;;;;;;;20.52;37.81;101794.22;5053529;28;20021;-78
2021/03/15 01:35:48;;;;;;;8.70;2.38;;;;;;;20.49;37.77;101804.06;5053788;28;20434;-78
2021/03/15 01:38:13;;;;;;;7.03;2.78;;;;;;;20.55;37.78;101808.19;5053417;28;20025;-80
2021/03/15 01:40:41;;;;;;;9.95;2.63;;;;;;;20.41;37.96;101799.47;5053281;28;20082;-78
2021/03/15 01:43:08;;;;;;;9.30;2.90;;;;;;;20.47;37.85;101809.16;5052062;28;20021;-78
2021/03/15 01:45:34;;;;;;;8.60;2.83;;;;;;;20.44;37.96;101812.66;5053559;28;20020;-78
2021/03/15 01:48:02;;;;;;;7.90;2.75;;;;;;;20.38;38.33;101816.81;5053905;28;20100;-79
2021/03/15 01:50:28;;;;;;;6.45;2.58;;;;;;;20.35;37.82;101806.44;5053246;28;20037;-78
2021/03/15 01:52:55;;;;;;;10.07;3.20;;;;;;;20.35;37.91;101818.34;5052886;28;20103;-78
2021/03/15 01:55:23;;;;;;;13.48;3.40;;;;;;;19.91;38.68;101820.22;5051813;28;20382;-80
2021/03/15 01:57:49;;;;;;;8.85;2.90;;;;;;;19.81;39.02;101823.47;5050848;28;20025;-79
2021/03/15 02:00:16;;;;;;;16.60;3.65;;;;;;;19.79;39.07;101829.34;5051495;28;20098;-78
2021/03/15 02:02:45;;;;;;;10.50;3.47;;;;;;;19.83;38.91;101827.50;5053483;28;20024;-79
2021/03/15 02:05:12;;;;;;;14.30;3.75;;;;;;;19.81;38.89;101831.78;5053187;28;20113;-79
2021/03/15 02:07:37;;;;;;;13.85;4.35;;;;;;;19.84;39.02;101825.53;5052966;28;20036;-80
2021/03/15 02:10:05;;;;;;;10.18;3.30;;;;;;;19.82;38.88;101839.75;5051513;28;20025;-80
2021/03/15 02:12:39;;;;;;;11.00;4.15;;;;;;;19.71;39.22;101833.06;5052978;28;20028;-79
2021/03/15 02:15:52;;;;;;;11.48;4.05;;;;;;;19.66;39.27;101842.44;5052282;28;20057;-79
2021/03/15 02:18:39;;;;;;;13.80;4.50;;;;;;;19.72;39.09;101833.88;5034476;28;20025;-79
2021/03/15 02:21:23;;;;;;;12.77;3.70;;;;;;;19.72;39.28;101839.41;5050616;28;20165;-80
2021/03/15 02:24:43;;;;;;;10.35;4.10;;;;;;;19.60;39.55;101845.78;5052603;28;20033;-79
2021/03/15 02:27:19;;;;;;;18.77;4.82;;;;;;;19.34;40.40;101848.88;5043090;28;20037;-79
2021/03/15 02:30:06;;;;;;;13.00;4.22;;;;;;;19.62;39.69;101844.28;5052226;28;20059;-80
2021/03/15 02:32:58;;;;;;;14.38;4.20;;;;;;;19.34;40.36;101855.22;5051835;28;20468;-79
2021/03/15 02:35:28;;;;;;;11.10;4.32;;;;;;;19.67;39.56;101857.09;5051877;28;20043;-80
2021/03/15 02:38:09;;;;;;;13.65;4.05;;;;;;;19.77;39.54;101856.63;5052020;28;20017;-78
2021/03/15 02:40:48;;;;;;;12.05;4.05;;;;;;;19.78;39.55;101855.47;5051709;28;20029;-80
2021/03/15 02:43:22;;;;;;;11.63;4.07;;;;;;;19.82;39.67;101852.81;5052744;28;20067;-79
2021/03/15 02:45:52;;;;;;;10.18;3.65;;;;;;;19.80;39.81;101847.63;5052248;28;20103;-80
2021/03/15 02:48:19;;;;;;;14.88;3.35;;;;;;;19.73;40.04;101838.28;5052186;28;20391;-80
2021/03/15 02:50:47;;;;;;;11.10;3.70;;;;;;;19.63;40.51;101836.78;5051597;28;20395;-80
2021/03/15 02:53:17;;;;;;;10.88;3.83;;;;;;;19.68;40.28;101847.63;5052350;28;20021;-78
2021/03/15 02:55:47;;;;;;;11.10;3.05;;;;;;;19.49;41.07;101837.09;5052720;28;20024;-79
2021/03/15 02:58:14;;;;;;;9.90;2.53;;;;;;;19.87;40.24;101849.78;5052795;28;20087;-80
2021/03/15 03:00:42;;;;;;;8.75;3.05;;;;;;;19.86;40.26;101846.22;5052218;28;20035;-78
2021/03/15 03:03:09;;;;;;;7.88;3.42;;;;;;;19.90;40.35;101862.97;5050474;28;20027;-79
2021/03/15 03:05:35;;;;;;;8.23;2.40;;;;;;;19.90;40.50;101860.19;5051845;28;20025;-79
2021/03/15 03:08:01;;;;;;;7.18;2.83;;;;;;;19.89;40.29;101853.03;5051930;28;20463;-79
2021/03/15 03:10:30;;;;;;;6.03;2.33;;;;;;;19.87;40.56;101872.78;5052613;28;20057;-80
2021/03/15 03:12:57;;;;;;;10.43;3.83;;;;;;;19.96;40.59;101861.59;5050602;28;20021;-80
2021/03/15 03:15:29;;;;;;;6.90;2.40;;;;;;;19.85;40.85;101858.47;5052643;28;20025;-79
2021/03/15 03:17:57;;;;;;;10.90;2.88;;;;;;;19.88;40.69;101871.66;5052512;28;20052;-80
2021/03/15 03:20:24;;;;;;;6.60;2.50;;;;;;;19.92;40.68;101872.56;5052258;28;20561;-78
2021/03/15 03:22:54;;;;;;;8.52;2.33;;;;;;;19.85;41.06;101872.34;5052324;28;20464;-79
2021/03/15 03:25:22;;;;;;;4.90;1.95;;;;;;;20.31;40.02;101875.69;5050897;28;20471;-78
2021/03/15 03:27:55;;;;;;;3.20;1.73;;;;;;;20.52;39.55;101871.97;5051778;28;20037;-78
2021/03/15 03:30:32;;;;;;;4.82;1.85;;;;;;;20.46;39.70;101877.75;5051761;28;20025;-81
2021/03/15 03:33:03;;;;;;;4.88;2.10;;;;;;;20.13;40.49;101877.94;5051760;28;20116;-78
2021/03/15 03:35:28;;;;;;;5.13;2.38;;;;;;;20.06;40.81;101877.72;5052297;28;20395;-80
2021/03/15 03:37:55;;;;;;;3.88;2.20;;;;;;;19.88;41.35;101868.88;5052103;28;20029;-80
2021/03/15 03:40:21;;;;;;;6.47;2.72;;;;;;;19.89;41.10;101873.25;5052280;28;20372;-78
2021/03/15 03:42:47;;;;;;;12.13;3.65;;;;;;;19.86;41.45;101865.63;5052438;28;20044;-81
2021/03/15 03:45:13;;;;;;;10.95;3.45;;;;;;;19.70;41.84;101864.72;5052170;28;20032;-79
2021/03/15 03:47:40;;;;;;;10.23;3.85;;;;;;;19.56;42.30;101855.91;5052352;28;20056;-80
2021/03/15 03:50:11;;;;;;;11.43;4.45;;;;;;;19.65;41.92;101863.00;5052262;28;20057;-78
2021/03/15 03:52:39;;;;;;;11.98;4.28;;;;;;;19.58;42.20;101870.28;5052246;28;20407;-80
2021/03/15 03:55:09;;;;;;;10.35;4.38;;;;;;;19.66;42.01;101869.34;5052223;28;20029;-80
2021/03/15 03:57:35;;;;;;;;;;;;;;;19.36;42.81;101875.09;5052639;28;20028;-80
2021/03/15 04:00:11;;;;;;;10.43;4.18;;;;;;;19.17;43.33;101868.47;5051743;28;19913;-78
2021/03/15 04:03:03;;;;;;;15.45;4.38;;;;;;;19.22;43.31;101880.16;5054687;28;20068;-79
2021/03/15 04:05:30;;;;;;;14.18;4.80;;;;;;;19.58;42.27;101884.16;5056068;28;20028;-78
2021/03/15 04:07:59;;;;;;;12.88;5.47;;;;;;;19.52;42.42;101886.31;5055933;28;20107;-78
2021/03/15 04:10:29;;;;;;;14.40;4.23;;;;;;;19.43;42.33;101882.03;5055984;28;20107;-80
2021/03/15 04:12:58;;;;;;;17.58;6.50;;;;;;;19.56;42.22;101881.66;5055660;28;20258;-81
2021/03/15 04:15:26;;;;;;;24.97;7.07;;;;;;;19.52;42.65;101874.41;5055677;28;20514;-78
2021/03/15 04:17:53;;;;;;;17.05;6.28;;;;;;;19.20;43.40;101890.78;5055601;28;20124;-79
2021/03/15 04:20:29;;;;;;;17.40;6.07;;;;;;;19.14;43.67;101892.16;5055399;28;20059;-80
2021/03/15 04:22:58;;;;;;;28.85;6.93;;;;;;;19.39;42.82;101879.94;5055238;28;20025;-80
2021/03/15 04:25:28;;;;;;;20.75;6.85;;;;;;;19.06;43.51;101893.06;5055455;28;20025;-78
2021/03/15 04:27:55;;;;;;;27.65;7.22;;;;;;;19.31;43.24;101896.69;5055676;28;20033;-80
2021/03/15 04:30:21;;;;;;;30.02;6.72;;;;;;;19.45;42.60;101908.25;5055561;28;20106;-79
2021/03/15 04:32:52;;;;;;;24.13;7.45;;;;;;;19.74;42.13;101910.03;5055593;28;20078;-79
2021/03/15 04:35:24;;;;;;;17.80;6.65;;;;;;;20.03;41.43;101917.28;5055282;28;20029;-78
2021/03/15 04:37:52;;;;;;;23.02;7.80;;;;;;;20.21;40.99;101917.81;5055396;28;20103;-78
2021/03/15 04:40:20;;;;;;;25.52;7.07;;;;;;;20.33;40.70;101917.81;5054784;28;20386;-79
2021/03/15 04:42:46;;;;;;;21.85;6.95;;;;;;;20.31;40.73;101916.53;5054451;28;20028;-80
2021/03/15 04:45:13;;;;;;;24.75;7.80;;;;;;;20.28;40.79;101915.25;5054571;28;20538;-78
2021/03/15 04:47:39;;;;;;;27.73;7.53;;;;;;;20.17;41.00;101919.66;5055030;28;20021;-78
2021/03/15 04:50:07;;;;;;;25.27;8.32;;;;;;;20.28;40.67;101923.59;5055243;28;20029;-80
2021/03/15 04:52:33;;;;;;;24.20;8.50;;;;;;;20.40;40.59;101925.50;5055047;28;20021;-78
2021/03/15 04:54:59;;;;;;;31.25;8.35;;;;;;;20.03;41.38;101928.38;5055118;28;20029;-78
2021/03/15 04:57:26;;;;;;;24.60;7.13;;;;;;;20.29;40.71;101929.94;5053649;28;20033;-79
2021/03/15 04:59:52;;;;;;;28.13;7.63;;;;;;;19.90;41.67;101930.34;5054822;28;20071;-79
2021/03/15 05:02:21;;;;;;;27.23;8.40;;;;;;;19.62;42.03;101927.44;5054976;28;20459;-78
2021/03/15 05:04:48;;;;;;;32.27;7.40;;;;;;;19.70;41.92;101917.41;5054841;28;20037;-78
2021/03/15 05:07:17;;;;;;;27.85;6.68;;;;;;;19.62;42.16;101929.41;5054722;28;20277;-78
2021/03/15 05:09:45;;;;;;;18.58;5.97;;;;;;;19.40;42.40;101934.22;5054553;28;20040;-80
2021/03/15 05:12:13;;;;;;;30.58;6.93;;;;;;;19.47;42.61;101943.94;5054365;28;20032;-79
2021/03/15 05:14:40;;;;;;;26.13;6.78;;;;;;;19.58;42.05;101934.06;5054844;28;20163;-78
2021/03/15 05:17:05;;;;;;;31.25;6.70;;;;;;;19.44;42.45;101941.84;5054659;28;20051;-80
2021/03/15 05:19:32;;;;;;;19.98;6.53;;;;;;;19.40;42.35;101938.94;5054372;28;20045;-78
2021/03/15 05:21:59;;;;;;;27.67;5.53;;;;;;;19.09;43.01;101945.00;5054574;28;20036;-79
2021/03/15 05:24:26;;;;;;;26.85;6.35;;;;;;;18.75;43.62;101946.16;5054572;28;20040;-78
2021/03/15 05:26:52;;;;;;;30.98;7.38;;;;;;;19.06;42.84;101945.69;5054144;28;20032;-80
2021/03/15 05:29:20;;;;;;;19.25;5.97;;;;;;;18.93;42.87;101953.13;5054422;28;20037;-79
2021/03/15 05:31:47;;;;;;;30.35;6.18;;;;;;;19.23;42.12;101951.03;5052655;28;20021;-80
2021/03/15 05:34:14;;;;;;;16.00;5.53;;;;;;;19.14;42.26;101953.09;5054337;28;20029;-78
2021/03/15 05:36:42;;;;;;;24.35;5.88;;;;;;;18.99;42.88;101954.56;5054342;28;20021;-80
2021/03/15 05:39:08;;;;;;;28.40;6.13;;;;;;;19.13;42.38;101952.28;5053960;28;20025;-78
2021/03/15 05:41:59;;;;;;;18.65;5.35;;;;;;;18.91;42.76;101971.25;5052389;28;20467;-78
2021/03/15 05:44:55;;;;;;;17.40;5.55;;;;;;;18.78;42.91;101979.50;5054201;28;20532;-79
2021/03/15 05:48:03;;;;;;;20.40;6.05;;;;;;;18.90;42.63;101997.34;5054018;28;20029;-78
2021/03/15 05:51:07;;;;;;;19.17;6.35;;;;;;;18.97;42.25;101997.59;5053998;28;20064;-78
2021/03/15 05:53:56;;;;;;;15.55;5.07;;;;;;;19.16;41.90;102006.19;5052762;28;20390;-80
2021/03/15 05:56:34;;;;;;;19.45;5.20;;;;;;;19.25;41.75;102011.66;5038271;28;20664;-79
2021/03/15 05:59:16;;;;;;;15.90;5.10;;;;;;;19.35;41.56;102002.94;5033763;28;20030;-78
2021/03/15 06:02:27;;;;;;;20.92;5.30;;;;;;;19.31;41.63;102008.31;5033830;28;20387;-78
2021/03/15 06:05:25;;;;;;;24.35;6.97;;;;;;;19.29;41.49;102002.31;5033726;28;20432;-78
2021/03/15 06:08:00;;;;;;;21.58;6.07;;;;;;;19.19;42.01;102005.50;5033600;28;20021;-80
2021/03/15 06:10:41;;;;;;;18.20;5.47;;;;;;;19.17;41.91;102002.28;5033004;28;20021;-79
2021/03/15 06:13:17;;;;;;;21.58;6.47;;;;;;;19.12;42.05;102024.66;5033612;28;20018;-80
2021/03/15 06:15:45;;;;;;;23.23;6.30;;;;;;;19.24;41.56;102021.94;5033565;28;20384;-79
2021/03/15 06:18:15;;;;;;;20.25;5.88;;;;;;;19.28;41.64;102019.31;5033202;28;20029;-79
2021/03/15 06:20:45;;;;;;;23.02;5.15;;;;;;;19.34;41.33;102029.00;5033330;28;20045;-80
2021/03/15 06:23:15;;;;;;;14.45;4.65;;;;;;;19.29;41.41;102030.03;5033350;28;20029;-79
2021/03/15 06:25:41;;;;;;;25.13;5.45;;;;;;;19.27;41.47;102034.28;5032738;28;20018;-80
2021/03/15 06:28:08;;;;;;;21.35;6.70;;;;;;;19.16;41.67;102033.91;5032134;28;20403;-77
2021/03/15 06:30:35;;;;;;;16.48;4.72;;;;;;;19.13;41.71;102037.38;5033273;28;20029;-78
2021/03/15 06:33:02;;;;;;;13.63;4.68;;;;;;;19.09;41.86;102036.41;5033418;28;20037;-78
2021/03/15 06:35:30;;;;;;;22.38;5.68;;;;;;;19.01;42.05;102037.31;5033206;28;20029;-79
2021/03/15 06:37:56;;;;;;;18.80;5.25;;;;;;;19.05;41.84;102032.72;5033099;28;20087;-78
2021/03/15 06:40:23;;;;;;;12.00;5.43;;;;;;;18.83;42.24;102033.88;5033196;28;20065;-79
2021/03/15 06:42:52;;;;;;;22.42;6.95;;;;;;;18.96;41.87;102035.53;5032818;28;20044;-79
2021/03/15 06:45:21;;;;;;;17.48;5.10;;;;;;;18.82;42.10;102044.13;5052529;28;20037;-79
2021/03/15 06:47:50;;;;;;;15.48;4.93;;;;;;;18.89;41.88;102040.81;5052915;28;20025;-80
2021/03/15 06:50:18;;;;;;;18.35;5.63;;;;;;;18.74;42.06;102041.41;5052780;28;20021;-79
2021/03/15 06:52:53;;;;;;;25.38;5.80;;;;;;;18.68;42.17;102045.53;5052788;28;20047;-79
2021/03/15 06:55:19;;;;;;;20.45;5.30;;;;;;;18.80;41.66;102051.94;5052747;28;20422;-78
2021/03/15 06:57:45;;;;;;;13.60;4.47;;;;;;;18.66;41.95;102048.63;5052756;28;20017;-80
2021/03/15 07:00:11;;;;;;;22.25;4.40;;;;;;;18.56;42.01;102051.78;5052716;28;20029;-80
2021/03/15 07:02:37;;;;;;;15.27;5.28;;;;;;;18.48;42.18;102053.44;5051279;28;20491;-80
2021/03/15 07:05:13;;;;;;;14.65;5.13;;;;;;;18.19;42.72;102059.78;5081754;28;20052;-79
2021/03/15 07:07:48;;;;;;;17.13;5.45;;;;;;;18.24;42.57;102056.03;5051064;28;20029;-78
2021/03/15 07:10:26;;;;;;;16.98;5.68;;;;;;;18.26;42.24;102062.03;5051246;28;20052;-78
2021/03/15 07:13:15;;;;;;;17.15;5.32;;;;;;;18.16;42.64;102056.88;5051344;28;20021;-75
2021/03/15 07:15:43;;;;;;;14.05;5.82;;;;;;;18.09;42.67;102068.47;5051211;28;20483;-77
2021/03/15 07:18:32;;;;;;;12.73;4.35;;;;;;;18.20;42.46;102061.41;5052176;28;20051;-80
2021/03/15 07:21:05;;;;;;;16.23;4.20;;;;;;;18.02;42.68;102068.16;5052139;28;20131;-75
2021/03/15 07:23:44;;;;;;;18.73;5.07;;;;;;;17.93;42.97;102064.63;5052154;28;20041;-80
2021/03/15 07:26:21;;;;;;;18.15;5.07;;;;;;;17.80;42.84;102069.22;5052296;28;20036;-79
2021/03/15 07:28:48;;;;;;;22.55;5.90;;;;;;;17.98;42.68;102072.72;5051974;28;20052;-77
2021/03/15 07:31:20;;;;;;;16.30;6.72;;;;;;;17.88;42.79;102081.38;5052314;28;20109;-78
2021/03/15 07:33:46;;;;;;;17.05;5.35;;;;;;;17.70;43.12;102081.44;5052422;28;20047;-75
2021/03/15 07:36:12;;;;;;;18.05;5.03;;;;;;;17.84;43.06;102085.97;5054154;28;20025;-75
2021/03/15 07:38:38;;;;;;;23.95;5.43;;;;;;;17.91;42.49;102091.78;5054542;28;20032;-76
2021/03/15 07:41:14;;;;;;;16.88;4.72;;;;;;;18.01;42.64;102102.50;5056276;28;20033;-78
2021/03/15 07:43:40;;;;;;;16.27;5.22;;;;;;;18.00;42.42;102109.16;5053720;28;20525;-79
2021/03/15 07:46:23;;;;;;;19.70;6.30;;;;;;;18.16;42.23;102118.56;5054380;28;20491;-78
2021/03/15 07:48:49;;;;;;;18.08;4.88;;;;;;;18.08;42.68;102116.63;5056189;28;20074;-75
2021/03/15 07:51:27;;;;;;;18.42;4.88;;;;;;;18.22;42.32;102122.75;5053763;28;20025;-76
2021/03/15 07:54:11;;;;;;;17.77;4.82;;;;;;;18.08;42.94;102116.63;5054256;28;20039;-78
2021/03/15 07:56:37;;;;;;;17.13;3.65;;;;;;;18.01;43.13;102124.63;5056017;28;20032;-79
2021/03/15 07:59:04;;;;;;;18.35;5.03;;;;;;;17.91;43.38;102119.41;5056036;28;20108;-79
2021/03/15 08:01:30;;;;;;;14.40;5.03;;;;;;;17.95;43.32;102120.41;5056072;28;20116;-79
2021/03/15 08:03:57;;;;;;;13.45;4.50;;;;;;;17.98;43.14;102108.66;5054357;28;20506;-78
2021/03/15 08:06:23;;;;;;;19.42;4.53;;;;;;;18.16;42.82;102112.22;5052640;28;20511;-76
2021/03/15 08:08:50;;;;;;;13.57;4.53;;;;;;;18.11;43.12;102104.09;5054476;28;20433;-78
2021/03/15 08:11:18;;;;;;;21.63;6.38;;;;;;;17.96;43.52;102100.72;5055818;28;20036;-78
2021/03/15 08:13:49;;;;;;;18.50;5.03;;;;;;;18.22;43.11;102106.16;5055212;28;20036;-78
2021/03/15 08:16:25;;;;;;;23.83;5.97;;;;;;;18.37;42.88;102098.44;5055803;28;20025;-79
2021/03/15 08:18:53;;;;;;;16.83;4.63;;;;;;;18.46;42.80;102107.50;5057853;28;20677;-79
2021/03/15 08:21:32;;;;;;;20.33;5.00;;;;;;;18.36;43.16;102116.19;5058945;28;20120;-79
2021/03/15 08:24:00;;;;;;;24.57;4.77;;;;;;;18.54;42.97;102120.50;5060031;28;20555;-79
2021/03/15 08:26:26;;;;;;;16.98;5.05;;;;;;;18.57;42.87;102134.47;5058061;28;20107;-79
2021/03/15 08:28:58;;;;;;;15.15;3.88;;;;;;;18.64;42.75;102139.47;5057014;28;20524;-79
2021/03/15 08:31:32;;;;;;;13.98;4.53;;;;;;;18.77;42.85;102141.25;5056763;28;20095;-79
2021/03/15 08:33:58;;;;;;;21.38;5.45;;;;;;;19.00;42.47;102154.78;5056049;28;20094;-79
2021/03/15 08:36:25;;;;;;;11.48;4.22;;;;;;;18.90;42.77;102155.19;5056873;28;20032;-80
2021/03/15 08:38:50;;;;;;;16.67;4.97;;;;;;;19.26;42.09;102160.94;5056747;28;20116;-79
2021/03/15 08:41:27;;;;;;;18.77;4.30;;;;;;;19.09;42.86;102166.63;5056214;28;20393;-79
2021/03/15 08:43:54;;;;;;;18.65;4.65;;;;;;;19.09;42.83;102161.06;5054703;28;20033;-79
2021/03/15 08:46:34;;;;;;;14.95;4.05;;;;;;;19.18;42.89;102161.81;5055847;28;20913;-79
2021/03/15 08:49:07;;;;;;;14.48;6.50;;;;;;;19.24;42.90;102165.22;5055303;28;20588;-79
2021/03/15 08:51:33;;;;;;;11.30;4.25;;;;;;;19.45;42.55;102168.78;5057929;28;20094;-79
2021/03/15 08:53:59;;;;;;;14.75;4.22;;;;;;;19.65;42.50;102172.75;5056474;28;20025;-79
2021/03/15 08:56:28;;;;;;;13.88;4.53;;;;;;;19.50;42.86;102176.91;5056292;28;20036;-80
2021/03/15 08:58:58;;;;;;;25.27;4.63;;;;;;;19.61;42.56;102175.38;5057520;28;20021;-79
2021/03/15 09:02:09;;;;;;;15.20;4.63;;;;;;;19.80;42.17;102179.59;5056913;28;20039;-79
2021/03/15 09:04:43;;;;;;;11.38;3.80;;;;;;;19.97;42.08;102184.97;5051471;28;20044;-79
2021/03/15 09:07:28;;;;;;;19.90;4.80;;;;;;;20.23;41.31;102190.25;5049648;28;20118;-79
2021/03/15 09:09:54;;;;;;;16.58;4.32;;;;;;;20.14;41.50;102200.63;5052042;28;20025;-79
2021/03/15 09:12:20;;;;;;;15.63;4.07;;;;;;;20.23;41.30;102209.66;5052077;28;20024;-79
2021/03/15 09:14:57;;;;;;;16.85;4.43;;;;;;;20.47;40.48;102209.75;5049188;28;20020;-80
2021/03/15 09:17:22;;;;;;;12.73;4.43;;;;;;;20.69;40.25;102205.72;5053308;28;20108;-79
2021/03/15 09:19:49;;;;;;;12.85;3.72;;;;;;;20.51;40.20;102215.44;5059930;28;20120;-79
2021/03/15 09:22:30;;;;;;;11.60;3.65;;;;;;;20.46;40.13;102219.22;5061815;28;20052;-80
2021/03/15 09:24:57;;;;;;;15.90;3.83;;;;;;;20.43;40.35;102216.31;5058817;28;20483;-79
2021/03/15 09:27:28;;;;;;;15.38;4.90;;;;;;;20.59;40.24;102210.94;5059606;28;20024;-79
2021/03/15 09:30:04;;;;;;;15.75;4.03;;;;;;;20.81;39.65;102215.22;5060750;28;20047;-79
2021/03/15 09:32:38;;;;;;;16.38;3.88;;;;;;;20.75;39.82;102212.66;5058552;28;20029;-79
2021/03/15 09:35:16;;;;;;;15.90;4.28;;;;;;;20.84;40.00;102215.31;5061256;28;20050;-79
2021/03/15 09:37:56;;;;;;;8.93;3.72;;;;;;;20.89;39.71;102212.31;5053122;28;20493;-80
2021/03/15 09:40:43;;;;;;;14.13;3.88;;;;;;;21.14;39.22;102209.50;5051769;28;20036;-81
2021/03/15 09:43:10;;;;;;;16.25;4.15;;;;;;;21.03;39.81;102218.34;5050448;28;20032;-80
2021/03/15 09:45:39;;;;;;;14.32;4.68;;;;;;;21.40;39.03;102212.75;5052743;28;20443;-80
2021/03/15 09:48:22;;;;;;;15.48;4.20;;;;;;;21.49;38.91;102216.19;5051741;28;20025;-80
2021/03/15 09:50:50;;;;;;;9.40;3.20;;;;;;;21.52;38.98;102221.03;5051917;28;20033;-81
2021/03/15 09:53:16;;;;;;;12.10;4.18;;;;;;;21.60;38.65;102216.50;5052425;28;20025;-78
2021/03/15 09:55:43;;;;;;;12.60;3.97;;;;;;;21.68;38.75;102218.31;5053771;28;20053;-80
2021/03/15 09:58:14;;;;;;;12.63;4.05;;;;;;;21.69;38.74;102219.97;5055676;28;20033;-80
2021/03/15 10:00:44;;;;;;;17.00;4.53;;;;;;;21.89;38.35;102213.38;5051630;28;20037;-79
2021/03/15 10:03:24;;;;;;;15.10;3.78;;;;;;;21.97;38.38;102216.38;5052899;28;20147;-80
2021/03/15 10:05:55;;;;;;;14.63;3.88;;;;;;;22.09;38.37;102217.16;5053273;28;20025;-80
2021/03/15 10:08:21;;;;;;;13.95;4.82;;;;;;;22.35;38.21;102213.84;5053098;28;20047;-78
2021/03/15 10:10:48;;;;;;;15.43;4.22;;;;;;;22.45;38.17;102223.69;5052968;28;20032;-78
2021/03/15 10:13:13;;;;;;;27.80;5.93;;;;;;;22.30;38.48;102222.50;5052953;28;20429;-78
2021/03/15 10:15:39;;;;;;;14.32;4.18;;;;;;;22.50;38.02;102222.59;5051548;28;20021;-77
2021/03/15 10:18:06;;;;;;;17.63;4.70;;;;;;;22.74;37.56;102230.75;5034364;28;20032;-77
2021/03/15 10:20:37;;;;;;;18.90;4.22;;;;;;;22.98;37.31;102232.59;5052468;28;20056;-79
2021/03/15 10:23:15;;;;;;;19.98;4.57;;;;;;;22.62;37.92;102233.66;5052858;28;20053;-78
2021/03/15 10:26:02;;;;;;;41.80;5.88;;;;;;;23.11;37.40;102233.25;5052680;28;20025;-78
2021/03/15 10:28:30;;;;;;;27.60;5.90;;;;;;;23.25;36.88;102236.38;5052661;28;20052;-78
2021/03/15 10:30:56;;;;;;;23.95;4.20;;;;;;;23.32;37.13;102244.09;5052753;28;20021;-77
2021/03/15 10:33:22;;;;;;;30.10;5.85;;;;;;;23.15;37.28;102243.34;5052506;28;20024;-77
2021/03/15 10:35:50;;;;;;;48.80;7.18;;;;;;;23.26;37.01;102241.59;5052515;28;20021;-79
2021/03/15 10:38:18;;;;;;;16.98;5.13;;;;;;;23.26;36.77;102246.34;5052380;28;20029;-79
2021/03/15 10:40:44;;;;;;;33.95;8.73;;;;;;;23.42;36.59;102249.91;5051067;28;20372;-80
2021/03/15 10:43:16;;;;;;;24.45;4.85;;;;;;;23.08;36.48;102243.16;5052200;28;20502;-78
2021/03/15 10:45:42;;;;;;;56.67;9.75;;;;;;;23.35;36.43;102246.16;5052412;28;20352;-77
2021/03/15 10:48:07;;;;;;;20.73;4.75;;;;;;;23.41;36.08;102250.28;5052035;28;20037;-77
2021/03/15 10:50:35;;;;;;;19.20;5.32;;;;;;;23.48;36.08;102247.66;5052401;28;20123;-78
2021/03/15 10:53:23;;;;;;;50.17;6.82;;;;;;;23.53;36.09;102256.53;5052296;28;20028;-78
2021/03/15 10:55:51;;;;;;;36.03;7.25;;;;;;;23.64;36.08;102256.00;5051343;28;20075;-78
2021/03/15 10:58:18;;;;;;;53.53;8.68;;;;;;;23.83;35.75;102256.00;5052060;28;20025;-77
2021/03/15 11:00:46;;;;;;;32.63;7.97;;;;;;;23.63;35.95;102257.97;5052027;28;20086;-77
2021/03/15 11:03:29;;;;;;;13.63;4.15;;;;;;;23.50;35.54;102262.88;5052089;28;20032;-79
2021/03/15 11:06:12;;;;;;;41.53;7.35;;;;;;;23.65;35.56;102264.00;5049329;28;20166;-78
2021/03/15 11:08:38;;;;;;;76.07;12.13;;;;;;;23.29;36.04;102264.38;5050746;28;20036;-78
2021/03/15 11:11:34;;;;;;;31.55;6.25;;;;;;;23.52;35.27;102260.50;5051629;28;20029;-80
2021/03/15 11:14:08;;;;;;;23.10;5.97;;;;;;;23.61;35.75;102253.94;5052276;28;20028;-80
2021/03/15 11:16:35;;;;;;;66.47;11.25;;;;;;;23.80;35.25;102246.41;5051100;28;20503;-81
2021/03/15 11:19:03;;;;;;;63.65;10.05;;;;;;;23.95;35.53;102244.69;5051129;28;20040;-81
2021/03/15 11:21:45;;;;;;;21.08;5.30;;;;;;;23.93;34.76;102252.63;5056030;28;20045;-80
2021/03/15 11:24:11;;;;;;;23.42;5.38;;;;;;;24.15;34.89;102251.06;5048023;28;20099;-80
2021/03/15 11:26:50;;;;;;;14.70;5.05;;;;;;;23.96;35.25;102251.91;5051359;28;20446;-80
2021/03/15 11:29:33;;;;;;;69.53;12.75;;;;;;;24.11;35.14;102250.19;5051365;28;20032;-78
2021/03/15 11:31:58;;;;;;;22.92;6.55;;;;;;;24.34;34.48;102256.66;5050496;28;20037;-79
2021/03/15 11:34:25;;;;;;;35.72;8.48;;;;;;;24.23;34.86;102258.41;5051815;28;20104;-80
2021/03/15 11:36:54;;;;;;;16.40;4.28;;;;;;;24.27;34.85;102250.91;5051769;28;20021;-78